createdAt,value
2022-11-16T00:00:49.627Z,11.58
2022-11-16T00:03:16.332Z,11.57
2022-11-16T00:05:42.822Z,11.58
2022-11-16T00:08:09.393Z,11.57
2022-11-16T00:10:36.042Z,11.57
2022-11-16T00:13:02.644Z,11.58
2022-11-16T00:15:29.322Z,11.59
2022-11-16T00:17:55.864Z,11.59
2022-11-16T00:20:22.405Z,11.58
2022-11-16T00:22:50.131Z,11.61
2022-11-16T00:25:16.701Z,11.59
2022-11-16T00:27:43.312Z,11.60
2022-11-16T00:30:11.552Z,11.61
2022-11-16T00:32:38.070Z,11.60
2022-11-16T00:35:04.910Z,11.60
2022-11-16T00:37:31.432Z,11.60
2022-11-16T00:39:57.988Z,11.61
2022-11-16T00:42:24.595Z,11.60
2022-11-16T00:44:51.172Z,11.61
2022-11-16T00:47:17.768Z,11.60
2022-11-16T00:49:44.316Z,11.60
2022-11-16T00:52:10.942Z,11.60
2022-11-16T00:54:37.479Z,11.59
2022-11-16T00:57:04.115Z,11.60
2022-11-16T00:59:30.621Z,11.59
2022-11-16T01:01:57.308Z,11.59
2022-11-16T01:04:23.886Z,11.59
2022-11-16T01:06:50.452Z,11.57
2022-11-16T01:09:17.062Z,11.57
2022-11-16T01:12:02.288Z,11.57
2022-11-16T01:14:28.802Z,11.58
2022-11-16T01:16:55.458Z,11.55
2022-11-16T01:19:22.061Z,11.54
2022-11-16T01:21:48.657Z,11.54
2022-11-16T01:24:15.206Z,11.54
2022-11-16T01:26:41.866Z,11.54
2022-11-16T01:29:08.545Z,11.54
2022-11-16T01:31:35.082Z,11.55
2022-11-16T01:34:01.745Z,11.53
2022-11-16T01:36:28.254Z,11.54
2022-11-16T01:38:54.883Z,11.52
2022-11-16T01:41:24.134Z,11.54
2022-11-16T01:43:57.640Z,11.54
2022-11-16T01:46:25.363Z,11.55
2022-11-16T01:49:03.277Z,11.54
2022-11-16T01:51:31.196Z,11.54
2022-11-16T01:54:00.767Z,11.54
2022-11-16T01:56:27.542Z,11.54
2022-11-16T01:58:54.273Z,11.54
2022-11-16T02:01:20.994Z,11.54
2022-11-16T02:03:48.878Z,11.53
2022-11-16T02:06:27.555Z,11.55
2022-11-16T02:09:21.839Z,11.54
2022-11-16T02:12:10.150Z,11.54
2022-11-16T02:14:59.670Z,11.55
2022-11-16T02:18:03.700Z,11.54
2022-11-16T02:20:30.351Z,11.52
2022-11-16T02:23:30.600Z,11.52
2022-11-16T02:26:41.935Z,11.54
2022-11-16T02:29:27.525Z,11.53
2022-11-16T02:32:03.091Z,11.53
2022-11-16T02:34:45.101Z,11.52
2022-11-16T02:37:16.331Z,11.52
2022-11-16T02:39:46.452Z,11.51
2022-11-16T02:42:20.547Z,11.52
2022-11-16T02:44:50.330Z,11.51
2022-11-16T02:47:24.966Z,11.51
2022-11-16T02:50:12.400Z,11.51
2022-11-16T02:52:39.155Z,11.50
2022-11-16T02:55:07.602Z,11.51
2022-11-16T02:57:36.915Z,11.51
2022-11-16T03:00:07.684Z,11.51
2022-11-16T03:02:43.386Z,11.51
2022-11-16T03:05:32.710Z,11.50
2022-11-16T03:08:25.333Z,11.51
2022-11-16T03:11:26.191Z,11.50
2022-11-16T03:13:57.381Z,11.51
2022-11-16T03:16:30.837Z,11.50
2022-11-16T03:19:00.422Z,11.49
2022-11-16T03:21:43.609Z,11.50
2022-11-16T03:24:10.626Z,11.49
2022-11-16T03:27:06.138Z,11.49
2022-11-16T03:30:00.162Z,11.50
2022-11-16T03:33:01.640Z,11.48
2022-11-16T03:35:35.384Z,11.49
2022-11-16T03:38:03.931Z,11.49
2022-11-16T03:40:34.087Z,11.49
2022-11-16T03:43:02.923Z,11.49
2022-11-16T03:45:31.347Z,11.50
2022-11-16T03:47:58.148Z,11.47
2022-11-16T03:50:24.785Z,11.47
2022-11-16T03:52:51.341Z,11.47
2022-11-16T03:55:17.965Z,11.48
2022-11-16T03:57:45.761Z,11.47
2022-11-16T04:00:12.810Z,11.47
2022-11-16T04:02:39.307Z,11.46
2022-11-16T04:05:24.394Z,11.46
2022-11-16T04:08:09.404Z,11.45
2022-11-16T04:10:54.588Z,11.44
2022-11-16T04:13:46.977Z,11.45
2022-11-16T04:16:32.254Z,11.44
2022-11-16T04:19:17.750Z,11.44
2022-11-16T04:22:16.976Z,11.43
2022-11-16T04:24:50.482Z,11.44
2022-11-16T04:27:36.369Z,11.43
2022-11-16T04:30:05.099Z,11.44
2022-11-16T04:32:51.856Z,11.42
2022-11-16T04:35:36.783Z,11.42
2022-11-16T04:38:03.609Z,11.44
2022-11-16T04:40:30.196Z,11.42
2022-11-16T04:43:01.812Z,11.41
2022-11-16T04:45:47.863Z,11.41
2022-11-16T04:48:15.832Z,11.41
2022-11-16T04:50:43.268Z,11.40
2022-11-16T04:53:10.694Z,11.41
2022-11-16T04:55:37.280Z,11.39
2022-11-16T04:58:04.668Z,11.40
2022-11-16T05:00:31.501Z,11.41
2022-11-16T05:03:01.326Z,11.40
2022-11-16T05:05:28.367Z,11.40
2022-11-16T05:07:55.039Z,11.39
2022-11-16T05:10:21.604Z,11.38
2022-11-16T05:12:48.266Z,11.40
2022-11-16T05:15:14.850Z,11.41
2022-11-16T05:17:42.406Z,11.42
2022-11-16T05:20:29.175Z,11.44
2022-11-16T05:22:57.729Z,11.44
2022-11-16T05:25:25.190Z,11.45
2022-11-16T05:27:51.699Z,11.46
2022-11-16T05:30:18.441Z,11.47
2022-11-16T05:32:45.099Z,11.49
2022-11-16T05:35:11.742Z,11.48
2022-11-16T05:37:38.283Z,11.49
2022-11-16T05:40:05.457Z,11.48
2022-11-16T05:42:31.984Z,11.48
2022-11-16T05:44:58.494Z,11.50
2022-11-16T05:47:26.197Z,11.52
2022-11-16T05:49:52.940Z,11.52
2022-11-16T05:52:19.440Z,11.52
2022-11-16T05:54:46.068Z,11.51
2022-11-16T05:57:12.667Z,11.52
2022-11-16T05:59:39.160Z,11.54
2022-11-16T06:02:05.937Z,11.53
2022-11-16T06:04:33.034Z,11.54
2022-11-16T06:06:59.647Z,11.55
2022-11-16T06:09:26.151Z,11.54
2022-11-16T06:11:52.851Z,11.55
2022-11-16T06:14:19.396Z,11.55
2022-11-16T06:16:45.954Z,11.58
2022-11-16T06:19:12.596Z,11.58
2022-11-16T06:21:39.167Z,11.57
2022-11-16T06:24:09.139Z,11.58
2022-11-16T06:26:37.031Z,11.57
2022-11-16T06:29:04.321Z,11.58
2022-11-16T06:31:30.871Z,11.58
2022-11-16T06:33:58.457Z,11.59
2022-11-16T06:36:25.070Z,11.60
2022-11-16T06:38:51.638Z,11.61
2022-11-16T06:41:18.328Z,11.61
2022-11-16T06:43:45.175Z,11.61
2022-11-16T06:46:11.878Z,11.62
2022-11-16T06:48:38.653Z,11.64
2022-11-16T06:51:05.360Z,11.64
2022-11-16T06:53:32.023Z,11.65
2022-11-16T06:56:06.073Z,11.65
2022-11-16T06:58:33.184Z,11.66
2022-11-16T07:01:08.071Z,11.67
2022-11-16T07:03:34.615Z,11.66
2022-11-16T07:06:07.441Z,11.69
2022-11-16T07:08:34.118Z,11.68
2022-11-16T07:11:05.766Z,11.68
2022-11-16T07:13:36.941Z,11.68
2022-11-16T07:16:08.147Z,11.70
2022-11-16T07:18:37.319Z,11.69
2022-11-16T07:21:11.493Z,11.70
2022-11-16T07:23:38.493Z,11.67
2022-11-16T07:26:07.178Z,11.68
2022-11-16T07:28:34.413Z,11.66
2022-11-16T07:31:05.083Z,11.67
2022-11-16T07:33:32.087Z,11.66
2022-11-16T07:36:12.775Z,11.66
2022-11-16T07:38:40.042Z,11.65
2022-11-16T07:41:11.911Z,11.65
2022-11-16T07:43:39.872Z,11.65
2022-11-16T07:46:46.078Z,11.66
2022-11-16T07:49:00.314Z,11.65
2022-11-16T07:51:26.896Z,11.65
2022-11-16T07:53:56.101Z,11.68
2022-11-16T07:56:22.649Z,11.68
2022-11-16T07:58:49.444Z,11.70
2022-11-16T08:01:17.984Z,11.73
2022-11-16T08:03:45.907Z,11.75
2022-11-16T08:06:20.278Z,11.77
2022-11-16T08:08:46.800Z,11.78
2022-11-16T08:11:13.443Z,11.79
2022-11-16T08:13:41.181Z,11.81
2022-11-16T08:16:10.532Z,11.81
2022-11-16T08:18:38.285Z,11.81
2022-11-16T08:21:06.917Z,11.81
2022-11-16T08:23:34.248Z,11.80
2022-11-16T08:26:09.514Z,11.77
2022-11-16T08:28:37.642Z,11.76
2022-11-16T08:31:11.928Z,11.78
2022-11-16T08:33:38.990Z,11.78
2022-11-16T08:36:12.515Z,11.81
2022-11-16T08:38:40.720Z,11.82
2022-11-16T08:41:07.398Z,11.84
2022-11-16T08:43:35.756Z,11.85
2022-11-16T08:46:02.537Z,11.88
2022-11-16T08:48:29.053Z,11.92
2022-11-16T08:51:16.818Z,11.99
2022-11-16T08:53:44.239Z,12.09
2022-11-16T08:56:15.026Z,12.13
2022-11-16T08:58:43.682Z,12.20
2022-11-16T09:01:13.967Z,12.27
2022-11-16T09:03:41.483Z,12.33
2022-11-16T09:06:10.061Z,12.39
2022-11-16T09:08:38.797Z,12.41
2022-11-16T09:11:10.441Z,12.43
2022-11-16T09:13:37.465Z,12.46
2022-11-16T09:16:04.615Z,12.45
2022-11-16T09:18:31.534Z,12.52
2022-11-16T09:20:58.461Z,12.50
2022-11-16T09:23:25.914Z,12.47
2022-11-16T09:25:54.401Z,12.48
2022-11-16T09:28:22.516Z,12.49
2022-11-16T09:30:51.227Z,12.51
2022-11-16T09:33:19.346Z,12.53
2022-11-16T09:35:47.152Z,12.54
2022-11-16T09:38:19.099Z,12.55
2022-11-16T09:40:48.738Z,12.59
2022-11-16T09:43:45.330Z,12.60
2022-11-16T09:46:36.588Z,12.63
2022-11-16T09:49:17.308Z,12.63
2022-11-16T09:51:50.080Z,12.69
2022-11-16T09:54:24.451Z,12.76
2022-11-16T09:56:57.614Z,12.81
2022-11-16T09:59:35.543Z,12.80
2022-11-16T10:02:32.451Z,12.73
2022-11-16T10:05:07.845Z,12.74
2022-11-16T10:07:46.569Z,12.76
2022-11-16T10:10:18.216Z,12.76
2022-11-16T10:12:55.659Z,12.76
2022-11-16T10:15:45.126Z,12.83
2022-11-16T10:18:30.103Z,12.93
2022-11-16T10:21:24.793Z,12.92
2022-11-16T10:24:23.816Z,12.96
2022-11-16T10:27:03.816Z,13.01
2022-11-16T10:29:35.406Z,13.02
2022-11-16T10:32:11.180Z,13.02
2022-11-16T10:35:00.009Z,13.08
2022-11-16T10:37:31.674Z,13.11
2022-11-16T10:39:58.753Z,13.10
2022-11-16T10:42:36.914Z,13.14
2022-11-16T10:45:39.799Z,13.17
2022-11-16T10:48:41.329Z,13.22
2022-11-16T10:51:09.597Z,13.25
2022-11-16T10:53:42.465Z,13.17
2022-11-16T10:56:42.690Z,13.09
2022-11-16T10:59:13.790Z,13.04
2022-11-16T11:01:43.675Z,12.94
2022-11-16T11:04:29.504Z,12.84
2022-11-16T11:07:01.133Z,12.82
2022-11-16T11:09:33.252Z,12.83
2022-11-16T11:12:27.758Z,12.76
2022-11-16T11:15:12.608Z,12.66
2022-11-16T11:17:47.823Z,12.60
2022-11-16T11:20:17.287Z,12.54
2022-11-16T11:22:55.330Z,12.53
2022-11-16T11:25:29.692Z,12.51
2022-11-16T11:28:31.753Z,12.51
2022-11-16T11:31:07.590Z,12.58
2022-11-16T11:33:38.659Z,12.65
2022-11-16T11:36:10.674Z,12.71
2022-11-16T11:39:03.436Z,12.77
2022-11-16T11:41:37.010Z,12.78
2022-11-16T11:44:29.015Z,12.77
2022-11-16T11:47:50.290Z,12.75
2022-11-16T11:49:59.689Z,12.73
2022-11-16T11:52:53.079Z,12.73
2022-11-16T11:55:19.751Z,12.76
2022-11-16T11:57:49.430Z,12.76
2022-11-16T12:00:18.120Z,12.76
2022-11-16T12:03:00.622Z,12.71
2022-11-16T12:05:59.702Z,12.66
2022-11-16T12:08:38.435Z,12.70
2022-11-16T12:11:41.078Z,12.72
2022-11-16T12:14:31.437Z,12.68
2022-11-16T12:17:07.290Z,12.65
2022-11-16T12:19:42.880Z,12.65
2022-11-16T12:22:21.593Z,12.69
2022-11-16T12:24:48.634Z,12.71
2022-11-16T12:27:53.733Z,12.74
2022-11-16T12:30:23.384Z,12.76
2022-11-16T12:33:08.327Z,12.76
2022-11-16T12:35:42.887Z,12.76
2022-11-16T12:38:27.547Z,12.77
2022-11-16T12:41:31.805Z,12.79
2022-11-16T12:44:02.165Z,12.79
2022-11-16T12:46:34.445Z,12.79
2022-11-16T12:49:19.819Z,12.75
2022-11-16T12:52:14.437Z,12.69
2022-11-16T12:55:23.972Z,12.67
2022-11-16T12:57:42.282Z,12.61
2022-11-16T13:00:12.707Z,12.60
2022-11-16T13:03:01.942Z,12.59
2022-11-16T13:05:43.985Z,12.58
2022-11-16T13:08:31.940Z,12.58
2022-11-16T13:11:34.021Z,12.56
2022-11-16T13:14:05.255Z,12.55
2022-11-16T13:16:31.885Z,12.52
2022-11-16T13:19:00.711Z,12.49
2022-11-16T13:21:54.232Z,12.45
2022-11-16T13:24:41.795Z,12.44
2022-11-16T13:27:11.034Z,12.43
2022-11-16T13:29:44.583Z,12.43
2022-11-16T13:32:24.627Z,12.42
2022-11-16T13:34:52.432Z,12.47
2022-11-16T13:37:37.576Z,12.54
2022-11-16T13:40:06.756Z,12.56
2022-11-16T13:42:35.821Z,12.56
2022-11-16T13:45:09.457Z,12.53
2022-11-16T13:47:37.453Z,12.51
2022-11-16T13:50:06.980Z,12.51
2022-11-16T13:53:31.849Z,12.50
2022-11-16T13:55:38.743Z,12.50
2022-11-16T13:58:06.766Z,12.49
2022-11-16T14:00:38.762Z,12.45
2022-11-16T14:03:17.442Z,12.40
2022-11-16T14:05:46.896Z,12.34
2022-11-16T14:08:19.403Z,12.26
2022-11-16T14:10:51.866Z,12.23
2022-11-16T14:13:49.688Z,12.20
2022-11-16T14:16:22.806Z,12.18
2022-11-16T14:18:51.654Z,12.16
2022-11-16T14:21:43.313Z,12.14
2022-11-16T14:24:39.716Z,12.13
2022-11-16T14:27:29.264Z,12.11
2022-11-16T14:30:13.897Z,12.08
2022-11-16T14:32:46.039Z,12.05
2022-11-16T14:35:32.736Z,12.01
2022-11-16T14:38:21.639Z,11.97
2022-11-16T14:40:56.191Z,11.92
2022-11-16T14:43:44.453Z,11.89
2022-11-16T14:46:23.450Z,11.86
2022-11-16T14:48:50.598Z,11.83
2022-11-16T14:51:31.801Z,11.79
2022-11-16T14:54:05.219Z,11.75
2022-11-16T14:56:31.777Z,11.69
2022-11-16T14:59:00.249Z,11.63
2022-11-16T15:01:31.159Z,11.57
2022-11-16T15:04:02.575Z,11.51
2022-11-16T15:06:35.415Z,11.46
2022-11-16T15:09:05.396Z,11.39
2022-11-16T15:11:56.351Z,11.34
2022-11-16T15:14:27.021Z,11.25
2022-11-16T15:16:56.259Z,11.20
2022-11-16T15:19:23.955Z,11.15
2022-11-16T15:21:55.383Z,11.11
2022-11-16T15:24:30.924Z,11.05
2022-11-16T15:27:22.961Z,10.98
2022-11-16T15:29:49.609Z,10.93
2022-11-16T15:32:17.219Z,10.87
2022-11-16T15:34:49.089Z,10.83
2022-11-16T15:37:27.043Z,10.76
2022-11-16T15:39:54.735Z,10.71
2022-11-16T15:42:22.650Z,10.66
2022-11-16T15:44:50.120Z,10.59
2022-11-16T15:47:17.284Z,10.53
2022-11-16T15:49:49.634Z,10.48
2022-11-16T15:52:46.379Z,10.42
2022-11-16T15:55:36.196Z,10.38
2022-11-16T15:58:06.507Z,10.32
2022-11-16T16:00:37.045Z,10.28
2022-11-16T16:03:24.006Z,10.19
2022-11-16T16:05:51.482Z,10.14
2022-11-16T16:08:30.426Z,10.08
2022-11-16T16:11:15.228Z,10.05
2022-11-16T16:13:46.734Z,10.00
2022-11-16T16:16:37.456Z,9.95
2022-11-16T16:19:32.743Z,9.89
2022-11-16T16:22:00.326Z,9.86
2022-11-16T16:24:41.399Z,9.82
2022-11-16T16:27:19.629Z,9.81
2022-11-16T16:29:47.675Z,9.78
2022-11-16T16:32:18.259Z,9.74
2022-11-16T16:34:44.984Z,9.70
2022-11-16T16:37:12.592Z,9.66
2022-11-16T16:39:39.904Z,9.65
2022-11-16T16:42:13.716Z,9.63
2022-11-16T16:44:41.349Z,9.62
2022-11-16T16:47:08.210Z,9.60
2022-11-16T16:49:35.581Z,9.58
2022-11-16T16:52:02.782Z,9.57
2022-11-16T16:54:29.632Z,9.56
2022-11-16T16:56:57.484Z,9.53
2022-11-16T16:59:25.151Z,9.50
2022-11-16T17:01:52.062Z,9.48
2022-11-16T17:04:19.183Z,9.47
2022-11-16T17:06:46.717Z,9.46
2022-11-16T17:09:13.949Z,9.44
2022-11-16T17:11:40.484Z,9.44
2022-11-16T17:14:08.476Z,9.40
2022-11-16T17:16:35.875Z,9.40
2022-11-16T17:19:03.736Z,9.38
2022-11-16T17:21:30.939Z,9.35
2022-11-16T17:23:57.971Z,9.33
2022-11-16T17:26:29.459Z,9.31
2022-11-16T17:28:57.215Z,9.28
2022-11-16T17:31:25.195Z,9.27
2022-11-16T17:33:52.481Z,9.24
2022-11-16T17:36:19.782Z,9.23
2022-11-16T17:38:46.791Z,9.22
2022-11-16T17:41:19.599Z,9.19
2022-11-16T17:43:46.663Z,9.19
2022-11-16T17:46:16.681Z,9.20
2022-11-16T17:48:45.112Z,9.20
2022-11-16T17:51:13.282Z,9.19
2022-11-16T17:53:40.888Z,9.18
2022-11-16T17:56:11.229Z,9.17
2022-11-16T17:58:37.853Z,9.15
2022-11-16T18:01:05.369Z,9.13
2022-11-16T18:03:36.192Z,9.11
2022-11-16T18:06:12.116Z,9.09
2022-11-16T18:08:39.986Z,9.04
2022-11-16T18:11:15.523Z,9.02
2022-11-16T18:13:42.671Z,8.99
2022-11-16T18:16:12.685Z,8.96
2022-11-16T18:18:40.327Z,8.94
2022-11-16T18:21:08.527Z,8.91
2022-11-16T18:23:36.658Z,8.88
2022-11-16T18:26:08.582Z,8.84
2022-11-16T18:28:35.475Z,8.82
2022-11-16T18:31:22.413Z,8.80
2022-11-16T18:33:49.664Z,8.79
2022-11-16T18:36:17.154Z,8.78
2022-11-16T18:38:44.109Z,8.76
2022-11-16T18:41:13.751Z,8.75
2022-11-16T18:43:42.402Z,8.74
2022-11-16T18:46:09.546Z,8.74
2022-11-16T18:48:36.112Z,8.73
2022-11-16T18:51:04.558Z,8.73
2022-11-16T18:53:32.590Z,8.76
2022-11-16T18:55:59.534Z,8.78
2022-11-16T19:01:16.896Z,8.82
2022-11-16T19:03:43.934Z,8.85
2022-11-16T19:06:11.837Z,8.86
2022-11-16T19:08:40.413Z,8.86
2022-11-16T19:11:12.198Z,8.88
2022-11-16T19:13:40.292Z,8.86
2022-11-16T19:16:07.872Z,8.86
2022-11-16T19:18:36.147Z,8.85
2022-11-16T19:21:13.522Z,8.86
2022-11-16T19:23:46.141Z,8.88
2022-11-16T19:26:14.308Z,8.91
2022-11-16T19:28:46.970Z,8.95
2022-11-16T19:31:28.853Z,8.97
2022-11-16T19:34:00.839Z,8.99
2022-11-16T19:36:29.410Z,9.04
2022-11-16T19:38:56.216Z,9.06
2022-11-16T19:41:23.112Z,9.09
2022-11-16T19:43:59.130Z,9.11
2022-11-16T19:46:33.799Z,9.12
2022-11-16T19:49:00.547Z,9.14
2022-11-16T19:51:29.938Z,9.11
2022-11-16T19:53:58.025Z,9.09
2022-11-16T19:56:25.038Z,9.05
2022-11-16T19:58:52.225Z,9.02
2022-11-16T20:01:25.442Z,8.99
2022-11-16T20:03:52.364Z,8.94
2022-11-16T20:06:33.705Z,8.91
2022-11-16T20:09:04.130Z,8.88
2022-11-16T20:11:34.134Z,8.82
2022-11-16T20:14:03.189Z,8.79
2022-11-16T20:16:38.347Z,8.76
2022-11-16T20:19:07.395Z,8.71
2022-11-16T20:21:41.986Z,8.66
2022-11-16T20:24:12.031Z,8.60
2022-11-16T20:26:48.635Z,8.56
2022-11-16T20:29:17.587Z,8.52
2022-11-16T20:31:46.031Z,8.47
2022-11-16T20:34:14.585Z,8.44
2022-11-16T20:36:43.746Z,8.41
2022-11-16T20:39:15.065Z,8.39
2022-11-16T20:41:42.943Z,8.36
2022-11-16T20:44:16.709Z,8.34
2022-11-16T20:46:45.121Z,8.31
2022-11-16T20:49:12.115Z,8.31
2022-11-16T20:51:38.896Z,8.31
2022-11-16T20:54:05.801Z,8.30
2022-11-16T20:56:32.634Z,8.29
2022-11-16T20:58:59.600Z,8.28
2022-11-16T21:01:33.324Z,8.28
2022-11-16T21:04:02.657Z,8.28
2022-11-16T21:06:29.385Z,8.29
2022-11-16T21:08:56.442Z,8.28
2022-11-16T21:11:27.130Z,8.28
2022-11-16T21:14:12.571Z,8.28
2022-11-16T21:16:39.504Z,8.28
2022-11-16T21:19:06.250Z,8.27
2022-11-16T21:21:33.565Z,8.26
2022-11-16T21:24:00.664Z,8.27
2022-11-16T21:26:29.495Z,8.28
2022-11-16T21:28:57.112Z,8.29
2022-11-16T21:31:26.994Z,8.30
2022-11-16T21:33:54.569Z,8.31
2022-11-16T21:36:24.278Z,8.30
2022-11-16T21:38:51.886Z,8.30
2022-11-16T21:41:22.513Z,8.30
2022-11-16T21:43:49.526Z,8.29
2022-11-16T21:46:24.929Z,8.30
2022-11-16T21:48:53.916Z,8.30
2022-11-16T21:51:22.187Z,8.29
2022-11-16T21:53:48.805Z,8.31
2022-11-16T21:56:17.552Z,8.31
2022-11-16T21:58:44.802Z,8.30
2022-11-16T22:01:12.644Z,8.30
2022-11-16T22:03:39.650Z,8.31
2022-11-16T22:06:26.319Z,8.33
2022-11-16T22:08:53.223Z,8.34
2022-11-16T22:11:22.123Z,8.35
2022-11-16T22:13:49.831Z,8.36
2022-11-16T22:16:20.070Z,8.37
2022-11-16T22:18:46.648Z,8.36
2022-11-16T22:21:13.542Z,8.37
2022-11-16T22:23:40.683Z,8.39
2022-11-16T22:26:09.836Z,8.39
2022-11-16T22:28:37.508Z,8.38
2022-11-16T22:31:11.129Z,8.39
2022-11-16T22:33:38.827Z,8.39
2022-11-16T22:36:08.394Z,8.41
2022-11-16T22:38:35.241Z,8.43
2022-11-16T22:41:01.748Z,8.43
2022-11-16T22:43:30.358Z,8.46
2022-11-16T22:45:58.965Z,8.47
2022-11-16T22:48:39.528Z,8.49
2022-11-16T22:51:23.216Z,8.53
2022-11-16T22:53:57.750Z,8.56
2022-11-16T22:56:25.684Z,8.58
2022-11-16T22:58:52.693Z,8.60
2022-11-16T23:01:20.721Z,8.63
2022-11-16T23:03:48.287Z,8.68
2022-11-16T23:06:15.124Z,8.69
2022-11-16T23:08:42.067Z,8.74
2022-11-16T23:11:31.328Z,8.77
2022-11-16T23:14:17.026Z,8.82
2022-11-16T23:16:44.185Z,8.86
2022-11-16T23:19:31.149Z,8.88
2022-11-16T23:22:17.050Z,8.91
2022-11-16T23:25:02.428Z,8.94
2022-11-16T23:27:39.561Z,8.97
2022-11-16T23:30:12.164Z,9.00
2022-11-16T23:32:39.344Z,9.02
2022-11-16T23:35:06.284Z,9.04
2022-11-16T23:37:32.829Z,9.05
2022-11-16T23:40:00.494Z,9.09
2022-11-16T23:42:45.390Z,9.10
2022-11-16T23:45:11.954Z,9.12
2022-11-16T23:47:38.549Z,9.13
2022-11-16T23:50:05.515Z,9.17
2022-11-16T23:52:32.171Z,9.18
2022-11-16T23:54:58.642Z,9.19
2022-11-16T23:57:25.190Z,9.19
2022-11-16T23:59:51.939Z,9.20
